Time;durP1;ratioP1;P1;durP2;ratioP2;P2;SDS_P1;SDS_P2;PMS_P1;PMS_P2;Temp;Humidity;BMP_temperature;BMP_pressure;BME280_temperature;BME280_humidity;BME280_pressure;Samples;Min_cycle;Max_cycle;Signal;HPM_P1;HPM_P2
2022/11/07 00:01:20;;;;;;;3.42;2.33;;;;;;;;;;6257163;28;20575;-87
2022/11/07 00:04:22;;;;;;;4.13;2.10;;;;;;;;;;6266550;28;20130;-85
2022/11/07 00:07:23;;;;;;;3.53;2.03;;;;;;;;;;6261207;28;20041;-85
2022/11/07 00:10:25;;;;;;;3.33;2.05;;;;;;;;;;6246833;28;20499;-85
2022/11/07 00:13:28;;;;;;;3.85;2.00;;;;;;;;;;6246124;28;20045;-85
2022/11/07 00:16:31;;;;;;;2.92;2.33;;;;;;;;;;6260259;28;20050;-85
2022/11/07 00:19:32;;;;;;;3.25;2.10;;;;;;;;;;6276243;28;20048;-85
2022/11/07 00:22:34;;;;;;;4.97;1.88;;;;;;;;;;6275787;28;20093;-86
2022/11/07 00:25:35;;;;;;;2.95;1.55;;;;;;;;;;6244775;28;20410;-85
2022/11/07 00:28:39;;;;;;;5.85;3.10;;;;;;;;;;6257694;28;20320;-85
2022/11/07 00:31:41;;;;;;;4.63;2.30;;;;;;;;;;6260494;28;20052;-85
2022/11/07 00:34:42;;;;;;;4.60;2.55;;;;;;;;;;6259361;28;20045;-85
2022/11/07 00:37:44;;;;;;;2.58;2.03;;;;;;;;;;6243818;28;20048;-84
2022/11/07 00:41:01;;;;;;;2.88;2.00;;;;;;;;;;6262820;28;20048;-85
2022/11/07 00:44:03;;;;;;;3.42;2.17;;;;;;;;;;6259098;28;20178;-85
2022/11/07 00:47:04;;;;;;;2.50;1.80;;;;;;;;;;6257103;28;20049;-85
2022/11/07 00:50:06;;;;;;;3.63;1.80;;;;;;;;;;6236224;28;20091;-86
2022/11/07 00:53:08;;;;;;;3.53;1.85;;;;;;;;;;6259947;28;20249;-86
2022/11/07 00:56:12;;;;;;;2.30;1.50;;;;;;;;;;6259250;28;20527;-86
2022/11/07 00:59:14;;;;;;;3.38;1.60;;;;;;;;;;6275908;28;20049;-85
2022/11/07 01:02:15;;;;;;;3.55;1.67;;;;;;;;;;6262954;28;20053;-86
2022/11/07 01:05:17;;;;;;;2.97;1.70;;;;;;;;;;6263856;28;21837;-85
2022/11/07 01:08:18;;;;;;;3.50;1.85;;;;;;;;;;6279225;28;20045;-84
2022/11/07 01:11:20;;;;;;;2.85;1.60;;;;;;;;;;6248617;28;20060;-86
2022/11/07 01:14:23;;;;;;;2.65;1.90;;;;;;;;;;6264589;28;20045;-85
2022/11/07 01:17:25;;;;;;;3.15;1.60;;;;;;;;;;6270147;28;20040;-86
2022/11/07 01:20:26;;;;;;;1.90;1.60;;;;;;;;;;6250264;28;20522;-85
2022/11/07 01:23:28;;;;;;;3.88;1.75;;;;;;;;;;6264682;28;20487;-85
2022/11/07 01:26:30;;;;;;;2.17;1.60;;;;;;;;;;6267251;28;20415;-86
2022/11/07 01:29:31;;;;;;;2.03;1.67;;;;;;;;;;6283769;28;20040;-85
2022/11/07 01:32:33;;;;;;;1.95;1.50;;;;;;;;;;6261911;28;20104;-85
2022/11/07 01:35:35;;;;;;;2.53;1.40;;;;;;;;;;6270817;28;20110;-84
2022/11/07 01:38:40;;;;;;;2.38;1.40;;;;;;;;;;6266639;28;20063;-84
2022/11/07 01:41:41;;;;;;;1.75;1.40;;;;;;;;;;6283070;28;20270;-84
2022/11/07 01:44:49;;;;;;;2.20;1.60;;;;;;;;;;6265034;28;20045;-84
2022/11/07 01:47:52;;;;;;;3.88;1.25;;;;;;;;;;6264107;28;20041;-84
2022/11/07 01:50:53;;;;;;;4.72;1.90;;;;;;;;;;6267808;28;20143;-85
2022/11/07 01:53:55;;;;;;;3.92;1.55;;;;;;;;;;6265931;28;20057;-86
2022/11/07 01:57:02;;;;;;;3.67;1.80;;;;;;;;;;6265825;28;20418;-85
2022/11/07 02:00:07;;;;;;;3.30;1.65;;;;;;;;;;6261979;28;20068;-87
2022/11/07 02:03:12;;;;;;;3.67;1.50;;;;;;;;;;6277746;28;20048;-86
2022/11/07 02:06:21;;;;;;;3.58;1.77;;;;;;;;;;6247714;28;20049;-85
2022/11/07 02:09:23;;;;;;;3.45;2.00;;;;;;;;;;6263630;28;20052;-85
2022/11/07 02:12:26;;;;;;;3.88;1.65;;;;;;;;;;6267242;28;20052;-85
2022/11/07 02:15:28;;;;;;;2.03;1.50;;;;;;;;;;6282047;28;20049;-86
2022/11/07 02:18:34;;;;;;;4.15;1.80;;;;;;;;;;6261812;28;20052;-86
2022/11/07 02:21:52;;;;;;;4.20;2.00;;;;;;;;;;6268033;28;20127;-85
2022/11/07 02:24:59;;;;;;;3.85;1.88;;;;;;;;;;6249079;28;20052;-85
2022/11/07 02:28:04;;;;;;;5.25;1.98;;;;;;;;;;6272619;28;20135;-85
2022/11/07 02:31:08;;;;;;;3.15;1.90;;;;;;;;;;6270761;28;20127;-85
2022/11/07 02:34:10;;;;;;;3.33;1.80;;;;;;;;;;6285343;28;20056;-86
2022/11/07 02:37:25;;;;;;;3.38;1.50;;;;;;;;;;6262559;28;20048;-86
2022/11/07 02:40:29;;;;;;;2.33;1.90;;;;;;;;;;6258202;28;20124;-85
2022/11/07 02:43:33;;;;;;;3.88;1.45;;;;;;;;;;6279554;28;20040;-86
2022/11/07 02:46:35;;;;;;;3.83;2.10;;;;;;;;;;6267927;28;20042;-86
2022/11/07 02:49:37;;;;;;;4.10;2.00;;;;;;;;;;6240981;28;20047;-86
2022/11/07 02:52:38;;;;;;;5.63;2.00;;;;;;;;;;6258201;28;20522;-86
2022/11/07 02:55:40;;;;;;;5.20;1.85;;;;;;;;;;6274045;28;20041;-85
2022/11/07 02:58:42;;;;;;;3.25;1.80;;;;;;;;;;6259645;28;20037;-85
2022/11/07 03:01:43;;;;;;;3.40;1.95;;;;;;;;;;6259427;28;20051;-85
2022/11/07 03:04:45;;;;;;;4.03;2.08;;;;;;;;;;6254354;28;20040;-86
2022/11/07 03:07:49;;;;;;;3.85;1.88;;;;;;;;;;6255525;28;20060;-85
2022/11/07 03:10:51;;;;;;;4.57;2.50;;;;;;;;;;6255163;28;20053;-86
2022/11/07 03:13:54;;;;;;;3.83;1.88;;;;;;;;;;6259113;28;20060;-86
2022/11/07 03:16:55;;;;;;;3.90;2.38;;;;;;;;;;6261024;28;20045;-86
2022/11/07 03:19:58;;;;;;;5.60;2.15;;;;;;;;;;6235391;28;20055;-86
2022/11/07 03:23:00;;;;;;;6.88;2.90;;;;;;;;;;6274244;28;20045;-85
2022/11/07 03:26:02;;;;;;;3.83;2.08;;;;;;;;;;6275932;28;20046;-86
2022/11/07 03:29:05;;;;;;;4.35;2.40;;;;;;;;;;6278355;28;20510;-85
2022/11/07 03:32:08;;;;;;;4.85;2.20;;;;;;;;;;6268092;28;20132;-85
2022/11/07 03:35:10;;;;;;;3.80;2.33;;;;;;;;;;6265386;28;20052;-86
2022/11/07 03:38:11;;;;;;;4.88;2.30;;;;;;;;;;6249795;28;20045;-86
2022/11/07 03:41:16;;;;;;;4.50;2.13;;;;;;;;;;6265395;28;20585;-85
2022/11/07 03:44:17;;;;;;;4.03;2.40;;;;;;;;;;6279075;28;20044;-84
2022/11/07 03:47:19;;;;;;;3.55;1.90;;;;;;;;;;6260676;28;20043;-86
2022/11/07 03:50:21;;;;;;;3.58;2.03;;;;;;;;;;6261500;28;20037;-84
2022/11/07 03:53:22;;;;;;;3.03;1.83;;;;;;;;;;6279498;28;20055;-85
2022/11/07 03:56:27;;;;;;;3.08;2.20;;;;;;;;;;6261749;28;20560;-85
2022/11/07 03:59:28;;;;;;;5.15;2.15;;;;;;;;;;6248456;28;20049;-85
2022/11/07 04:02:30;;;;;;;4.35;2.22;;;;;;;;;;6265289;28;20115;-85
2022/11/07 04:05:32;;;;;;;4.60;2.00;;;;;;;;;;6259483;28;20068;-85
2022/11/07 04:08:34;;;;;;;3.58;2.17;;;;;;;;;;6266271;28;20037;-86
2022/11/07 04:18:16;;;;;;;3.28;2.55;;;;;;;;;;6280650;28;20053;-85
2022/11/07 04:21:17;;;;;;;4.57;2.55;;;;;;;;;;6254057;28;20047;-84
2022/11/07 04:24:19;;;;;;;4.80;2.63;;;;;;;;;;6265463;28;20041;-86
2022/11/07 04:30:41;;;;;;;4.30;3.08;;;;;;;;;;6268491;28;20045;-85
2022/11/07 04:33:42;;;;;;;7.22;3.30;;;;;;;;;;6248896;28;20049;-86
2022/11/07 04:36:44;;;;;;;6.65;3.50;;;;;;;;;;6247046;28;20094;-86
2022/11/07 04:39:46;;;;;;;5.53;2.78;;;;;;;;;;6263980;28;20090;-86
2022/11/07 04:42:48;;;;;;;7.13;3.10;;;;;;;;;;6263525;28;20114;-86
2022/11/07 04:45:50;;;;;;;7.22;3.20;;;;;;;;;;6273910;28;20193;-86
2022/11/07 04:48:52;;;;;;;6.18;3.25;;;;;;;;;;6267945;28;20108;-85
2022/11/07 04:51:56;;;;;;;5.32;3.53;;;;;;;;;;6248994;28;20116;-85
2022/11/07 04:54:58;;;;;;;6.22;3.20;;;;;;;;;;6255615;28;20045;-86
2022/11/07 04:57:59;;;;;;;5.93;3.28;;;;;;;;;;6248364;28;20162;-86
2022/11/07 05:01:01;;;;;;;9.30;3.58;;;;;;;;;;6262519;28;20041;-87
2022/11/07 05:04:03;;;;;;;4.38;3.10;;;;;;;;;;6245383;28;20041;-85
2022/11/07 05:07:06;;;;;;;6.68;3.50;;;;;;;;;;6263153;28;20183;-85
2022/11/07 05:10:17;;;;;;;7.65;3.60;;;;;;;;;;6262704;28;20069;-86
2022/11/07 05:13:19;;;;;;;7.22;3.85;;;;;;;;;;6241609;28;20041;-86
2022/11/07 05:16:20;;;;;;;7.20;3.28;;;;;;;;;;6261009;28;20033;-86
2022/11/07 05:19:22;;;;;;;6.50;3.63;;;;;;;;;;6260167;28;20052;-84
2022/11/07 05:25:49;;;;;;;5.57;3.42;;;;;;;;;;6260506;28;20492;-85
2022/11/07 05:28:51;;;;;;;8.50;3.85;;;;;;;;;;6243411;28;20037;-86
2022/11/07 05:31:52;;;;;;;11.93;3.90;;;;;;;;;;6277711;28;20078;-88
2022/11/07 05:34:54;;;;;;;5.32;3.72;;;;;;;;;;6273379;28;20049;-85
2022/11/07 05:37:56;;;;;;;5.07;3.35;;;;;;;;;;6262098;28;20053;-85
2022/11/07 05:41:01;;;;;;;7.07;3.55;;;;;;;;;;6263215;28;20052;-85
2022/11/07 05:44:03;;;;;;;6.10;3.83;;;;;;;;;;6282619;28;20049;-86
2022/11/07 05:47:05;;;;;;;7.88;3.60;;;;;;;;;;6282585;28;20049;-85
2022/11/07 05:50:07;;;;;;;6.78;3.40;;;;;;;;;;6278117;28;20136;-84
2022/11/07 05:53:08;;;;;;;6.10;3.38;;;;;;;;;;6245673;28;20048;-86
2022/11/07 05:56:10;;;;;;;5.93;3.33;;;;;;;;;;6247266;28;20141;-84
2022/11/07 05:59:12;;;;;;;4.90;3.10;;;;;;;;;;6251813;28;20176;-85
2022/11/07 06:02:14;;;;;;;7.60;3.17;;;;;;;;;;6235785;28;20041;-85
2022/11/07 06:05:17;;;;;;;6.28;3.45;;;;;;;;;;6270534;28;20044;-84
2022/11/07 06:08:24;;;;;;;6.60;3.25;;;;;;;;;;6275039;28;20060;-85
2022/11/07 06:11:26;;;;;;;4.93;3.10;;;;;;;;;;6256412;28;20067;-85
2022/11/07 06:14:27;;;;;;;5.78;3.70;;;;;;;;;;6258654;28;20049;-86
2022/11/07 06:17:29;;;;;;;7.78;3.00;;;;;;;;;;6257845;28;20055;-87
2022/11/07 06:20:32;;;;;;;8.90;3.42;;;;;;;;;;6254212;28;20539;-86
2022/11/07 06:23:34;;;;;;;4.70;3.22;;;;;;;;;;6249749;28;20040;-86
2022/11/07 06:26:36;;;;;;;9.52;3.00;;;;;;;;;;6255361;28;20055;-86
2022/11/07 06:29:37;;;;;;;5.97;3.00;;;;;;;;;;6258632;28;20073;-85
2022/11/07 06:32:43;;;;;;;6.95;3.40;;;;;;;;;;6266480;28;20048;-86
2022/11/07 06:35:45;;;;;;;4.95;2.90;;;;;;;;;;6272068;28;20151;-87
2022/11/07 06:38:51;;;;;;;5.70;2.63;;;;;;;;;;6264471;28;20053;-86
2022/11/07 06:41:53;;;;;;;6.78;2.78;;;;;;;;;;6255180;28;20048;-87
2022/11/07 06:44:54;;;;;;;7.43;3.25;;;;;;;;;;6260322;28;20715;-87
2022/11/07 06:47:56;;;;;;;5.68;2.42;;;;;;;;;;6270617;28;20092;-86
2022/11/07 06:51:00;;;;;;;4.57;3.15;;;;;;;;;;6254320;28;20056;-86
2022/11/07 06:54:01;;;;;;;5.28;2.70;;;;;;;;;;6260332;28;20053;-86
2022/11/07 06:57:03;;;;;;;5.10;2.75;;;;;;;;;;6249413;28;20040;-85
2022/11/07 07:00:05;;;;;;;5.82;2.92;;;;;;;;;;6261215;28;20053;-84
2022/11/07 07:03:10;;;;;;;6.13;3.60;;;;;;;;;;6281227;28;20041;-86
2022/11/07 07:06:14;;;;;;;4.30;2.70;;;;;;;;;;6256806;28;20048;-86
2022/11/07 07:09:16;;;;;;;7.80;2.67;;;;;;;;;;6259218;28;20036;-86
2022/11/07 07:12:17;;;;;;;7.18;2.90;;;;;;;;;;6258940;28;20580;-87
2022/11/07 07:15:19;;;;;;;7.45;2.70;;;;;;;;;;6271885;28;20410;-86
2022/11/07 07:18:22;;;;;;;6.03;2.95;;;;;;;;;;6260652;28;20052;-85
2022/11/07 07:21:24;;;;;;;6.10;2.72;;;;;;;;;;6256021;28;20050;-85
2022/11/07 07:24:26;;;;;;;7.75;4.70;;;;;;;;;;6255622;28;20037;-85
2022/11/07 07:27:28;;;;;;;5.55;3.45;;;;;;;;;;6251255;28;20045;-85
2022/11/07 07:30:30;;;;;;;10.20;3.97;;;;;;;;;;6255921;28;20044;-85
2022/11/07 07:33:31;;;;;;;9.52;4.82;;;;;;;;;;6254964;28;20135;-87
2022/11/07 07:36:33;;;;;;;7.60;3.65;;;;;;;;;;6256202;28;20512;-86
2022/11/07 07:39:34;;;;;;;8.93;3.20;;;;;;;;;;6265789;28;20120;-85
2022/11/07 07:42:41;;;;;;;9.98;3.55;;;;;;;;;;6249749;28;20060;-86
2022/11/07 07:45:43;;;;;;;5.88;2.90;;;;;;;;;;6258328;28;20044;-86
2022/11/07 07:48:44;;;;;;;4.57;2.75;;;;;;;;;;6254926;28;20049;-86
2022/11/07 07:51:46;;;;;;;5.43;2.72;;;;;;;;;;6266514;28;20076;-86
2022/11/07 07:54:48;;;;;;;9.80;6.93;;;;;;;;;;6240897;28;20045;-87
2022/11/07 07:57:49;;;;;;;5.43;2.55;;;;;;;;;;6275510;28;20103;-84
2022/11/07 08:00:52;;;;;;;7.28;2.10;;;;;;;;;;6256516;28;21595;-85
2022/11/07 08:03:54;;;;;;;4.72;2.15;;;;;;;;;;6258911;28;20056;-84
2022/11/07 08:07:03;;;;;;;4.05;2.20;;;;;;;;;;6269682;28;20049;-86
2022/11/07 08:10:05;;;;;;;6.90;2.53;;;;;;;;;;6254573;28;20049;-87
2022/11/07 08:13:27;;;;;;;3.85;2.15;;;;;;;;;;6271246;28;20483;-86
2022/11/07 08:16:29;;;;;;;6.47;1.92;;;;;;;;;;6237336;28;20045;-86
2022/11/07 08:19:30;;;;;;;4.35;1.83;;;;;;;;;;6258572;28;20067;-85
2022/11/07 08:22:32;;;;;;;6.15;2.30;;;;;;;;;;6257473;28;20651;-85
2022/11/07 08:25:33;;;;;;;7.85;2.08;;;;;;;;;;6264436;28;20053;-87
2022/11/07 08:28:35;;;;;;;4.32;1.95;;;;;;;;;;6262469;28;20099;-87
2022/11/07 08:31:37;;;;;;;3.70;1.80;;;;;;;;;;6261391;28;20170;-85
2022/11/07 08:34:38;;;;;;;4.55;1.75;;;;;;;;;;6257247;28;20433;-85
2022/11/07 08:37:43;;;;;;;5.72;1.90;;;;;;;;;;6274494;28;20491;-85
2022/11/07 08:40:45;;;;;;;6.88;1.83;;;;;;;;;;6272732;28;20414;-84
2022/11/07 08:43:48;;;;;;;6.45;2.00;;;;;;;;;;6260094;28;20052;-86
2022/11/07 08:46:49;;;;;;;4.00;1.85;;;;;;;;;;6272679;28;20098;-85
2022/11/07 08:49:51;;;;;;;5.95;1.95;;;;;;;;;;6252522;28;20056;-85
2022/11/07 08:52:53;;;;;;;5.15;2.47;;;;;;;;;;6255220;28;20068;-88
2022/11/07 08:56:07;;;;;;;4.65;1.95;;;;;;;;;;6244140;28;20800;-85
2022/11/07 08:59:09;;;;;;;5.30;2.03;;;;;;;;;;6271334;28;20069;-85
2022/11/07 09:02:12;;;;;;;5.15;1.90;;;;;;;;;;6240171;28;20424;-87
2022/11/07 09:05:34;;;;;;;4.45;2.00;;;;;;;;;;6251928;28;20041;-86
2022/11/07 09:08:35;;;;;;;6.55;1.80;;;;;;;;;;6271426;28;20064;-88
2022/11/07 09:11:37;;;;;;;5.13;1.63;;;;;;;;;;6238967;28;20059;-84
2022/11/07 09:14:39;;;;;;;3.50;1.88;;;;;;;;;;6250891;28;20041;-84
2022/11/07 09:17:40;;;;;;;7.93;3.47;;;;;;;;;;6270335;28;20049;-84
2022/11/07 09:20:42;;;;;;;6.60;2.17;;;;;;;;;;6267194;28;20052;-84
2022/11/07 09:23:44;;;;;;;2.53;1.73;;;;;;;;;;6244104;28;20427;-85
2022/11/07 09:26:45;;;;;;;4.68;2.05;;;;;;;;;;6252929;28;20408;-83
2022/11/07 09:29:47;;;;;;;5.22;1.92;;;;;;;;;;6256749;28;20157;-84
2022/11/07 09:32:48;;;;;;;4.88;2.05;;;;;;;;;;6249772;28;20522;-84
2022/11/07 09:35:50;;;;;;;7.35;2.13;;;;;;;;;;6266576;28;20041;-83
2022/11/07 09:38:54;;;;;;;4.68;1.73;;;;;;;;;;6255826;28;20045;-84
2022/11/07 09:42:14;;;;;;;5.72;2.45;;;;;;;;;;6250832;28;20049;-84
2022/11/07 09:45:15;;;;;;;6.65;1.77;;;;;;;;;;6255659;28;20043;-84
2022/11/07 09:48:22;;;;;;;5.10;1.70;;;;;;;;;;6253001;28;20057;-84
2022/11/07 09:51:37;;;;;;;5.43;1.65;;;;;;;;;;6270491;28;20427;-83
2022/11/07 09:54:44;;;;;;;7.75;1.95;;;;;;;;;;6266653;28;20071;-85
2022/11/07 09:57:49;;;;;;;5.68;1.90;;;;;;;;;;6253261;28;20503;-83
2022/11/07 10:00:51;;;;;;;;;;;;;;;;;;6249496;28;20102;-84
2022/11/07 10:03:53;;;;;;;4.43;2.23;;;;;;;;;;6235301;28;19932;-83
2022/11/07 10:07:44;;;;;;;4.70;1.70;;;;;;;;;;6263805;28;20049;-83
2022/11/07 10:10:59;;;;;;;3.53;1.50;;;;;;;;;;6251571;28;20045;-82
2022/11/07 10:14:08;;;;;;;6.80;2.78;;;;;;;;;;6249477;28;20049;-82
2022/11/07 10:17:27;;;;;;;4.30;1.70;;;;;;;;;;6268521;28;20491;-84
2022/11/07 10:20:53;;;;;;;5.47;1.67;;;;;;;;;;6250634;28;20040;-83
2022/11/07 10:24:33;;;;;;;6.22;2.15;;;;;;;;;;6264895;28;21543;-84
2022/11/07 10:27:37;;;;;;;6.20;1.85;;;;;;;;;;6250641;28;20073;-84
2022/11/07 10:30:40;;;;;;;5.35;1.60;;;;;;;;;;6255856;28;20040;-85
2022/11/07 10:33:59;;;;;;;6.05;1.70;;;;;;;;;;6249113;28;20488;-84
2022/11/07 10:37:00;;;;;;;5.50;1.80;;;;;;;;;;6248554;28;20351;-85
2022/11/07 10:40:15;;;;;;;7.10;1.98;;;;;;;;;;6255866;28;20102;-84
2022/11/07 10:43:34;;;;;;;5.57;1.60;;;;;;;;;;6230123;28;20049;-85
2022/11/07 10:46:41;;;;;;;4.60;1.80;;;;;;;;;;6257225;28;20041;-85
2022/11/07 10:49:55;;;;;;;6.20;2.15;;;;;;;;;;6249808;28;20049;-84
2022/11/07 10:53:04;;;;;;;5.60;1.70;;;;;;;;;;6268429;28;20526;-83
2022/11/07 10:56:11;;;;;;;8.27;2.00;;;;;;;;;;6246785;28;20041;-86
2022/11/07 10:59:23;;;;;;;9.82;2.42;;;;;;;;;;6247328;28;20054;-82
2022/11/07 11:02:49;;;;;;;7.47;2.08;;;;;;;;;;6266617;28;20049;-84
2022/11/07 11:05:51;;;;;;;3.95;1.80;;;;;;;;;;6252054;28;20430;-83
2022/11/07 11:08:53;;;;;;;5.30;1.70;;;;;;;;;;6253395;28;20049;-84
2022/11/07 11:11:55;;;;;;;7.20;1.90;;;;;;;;;;6250145;28;20053;-83
2022/11/07 11:15:13;;;;;;;7.25;2.05;;;;;;;;;;6265222;28;20045;-83
2022/11/07 11:18:16;;;;;;;5.53;2.13;;;;;;;;;;6261532;28;20149;-83
2022/11/07 11:21:19;;;;;;;6.55;2.05;;;;;;;;;;6257847;28;20581;-85
2022/11/07 11:24:29;;;;;;;6.82;1.75;;;;;;;;;;6255498;28;20710;-84
2022/11/07 11:27:33;;;;;;;3.40;1.90;;;;;;;;;;6246473;28;20051;-84
2022/11/07 11:30:35;;;;;;;4.80;1.95;;;;;;;;;;6265784;28;20352;-84
2022/11/07 11:33:43;;;;;;;6.75;2.42;;;;;;;;;;6248174;28;20075;-83
2022/11/07 11:36:55;;;;;;;9.15;3.97;;;;;;;;;;6248844;28;20498;-84
2022/11/07 11:39:57;;;;;;;5.10;2.25;;;;;;;;;;6232190;22;21047;-89
2022/11/07 11:43:09;;;;;;;7.53;3.33;;;;;;;;;;6278016;28;20076;-89
2022/11/07 11:46:34;;;;;;;19.30;8.70;;;;;;;;;;6182198;28;20552;-88
2022/11/07 11:50:08;;;;;;;5.97;2.42;;;;;;;;;;6173182;28;20052;-90
2022/11/07 11:53:15;;;;;;;3.63;3.20;;;;;;;;;;6185791;28;20052;-89
2022/11/07 11:56:42;;;;;;;7.97;2.38;;;;;;;;;;6182781;28;20065;-90
2022/11/07 11:59:54;;;;;;;6.60;3.78;;;;;;;;;;6183745;28;20526;-90
2022/11/07 12:03:13;;;;;;;4.50;2.45;;;;;;;;;;6159950;28;20495;-89
2022/11/07 12:06:38;;;;;;;7.03;2.03;;;;;;;;;;6185999;28;20057;-89
2022/11/07 12:09:47;;;;;;;3.90;1.95;;;;;;;;;;6186614;28;20530;-89
2022/11/07 12:13:13;;;;;;;4.03;1.90;;;;;;;;;;6189745;28;20115;-90
2022/11/07 12:16:21;;;;;;;7.72;2.00;;;;;;;;;;6183571;28;20046;-90
2022/11/07 12:19:33;;;;;;;6.50;2.15;;;;;;;;;;6183207;28;20046;-89
2022/11/07 12:22:59;;;;;;;3.65;1.95;;;;;;;;;;6199636;28;20058;-90
2022/11/07 12:26:10;;;;;;;4.32;1.80;;;;;;;;;;6182563;28;20600;-88
2022/11/07 12:29:21;;;;;;;6.00;2.03;;;;;;;;;;6194170;28;20555;-88
2022/11/07 12:32:42;;;;;;;4.68;1.88;;;;;;;;;;6203026;28;20053;-88
2022/11/07 12:35:44;;;;;;;6.03;2.22;;;;;;;;;;6187410;28;20056;-90
2022/11/07 12:39:02;;;;;;;7.05;1.63;;;;;;;;;;6179305;28;20057;-90
2022/11/07 12:42:20;;;;;;;6.15;2.00;;;;;;;;;;6181828;28;20054;-89
2022/11/07 12:45:36;;;;;;;1.98;1.77;;;;;;;;;;6164202;28;20061;-89
2022/11/07 12:48:50;;;;;;;6.68;2.00;;;;;;;;;;6197364;28;20535;-89
2022/11/07 12:52:01;;;;;;;2.67;1.55;;;;;;;;;;6174970;28;20133;-90
2022/11/07 12:55:15;;;;;;;7.03;2.90;;;;;;;;;;6218362;28;20061;-89
2022/11/07 12:58:23;;;;;;;6.97;1.77;;;;;;;;;;6187205;28;20050;-88
2022/11/07 13:01:40;;;;;;;5.80;1.77;;;;;;;;;;6170794;28;20055;-88
2022/11/07 13:04:55;;;;;;;5.30;2.50;;;;;;;;;;6198740;28;20050;-90
2022/11/07 13:08:16;;;;;;;3.40;1.40;;;;;;;;;;6189168;28;20051;-91
2022/11/07 13:11:18;;;;;;;10.27;2.10;;;;;;;;;;6170125;28;20076;-91
2022/11/07 13:14:30;;;;;;;5.57;1.88;;;;;;;;;;6196354;28;20054;-89
2022/11/07 13:17:43;;;;;;;7.70;2.10;;;;;;;;;;6176735;28;20516;-90
2022/11/07 13:20:46;;;;;;;5.93;1.80;;;;;;;;;;6183645;28;20181;-91
2022/11/07 13:23:48;;;;;;;4.95;1.60;;;;;;;;;;6184537;28;20054;-90
2022/11/07 13:26:50;;;;;;;5.60;1.40;;;;;;;;;;6189890;28;20061;-90
2022/11/07 13:29:52;;;;;;;3.20;1.37;;;;;;;;;;6165119;28;20042;-90
2022/11/07 13:32:56;;;;;;;4.20;1.40;;;;;;;;;;6181919;28;20465;-91
2022/11/07 13:36:24;;;;;;;3.47;1.35;;;;;;;;;;6176805;28;20057;-91
2022/11/07 13:39:28;;;;;;;5.85;1.60;;;;;;;;;;6256573;28;20153;-90
2022/11/07 13:42:32;;;;;;;6.22;1.45;;;;;;;;;;6169785;28;20066;-90
2022/11/07 13:45:57;;;;;;;5.38;1.50;;;;;;;;;;6179147;28;20054;-89
2022/11/07 13:49:13;;;;;;;4.50;1.35;;;;;;;;;;6175712;28;20526;-90
2022/11/07 13:52:25;;;;;;;4.63;1.38;;;;;;;;;;6182097;28;20141;-87
2022/11/07 13:55:42;;;;;;;4.93;1.35;;;;;;;;;;6170541;28;20099;-90
2022/11/07 13:58:45;;;;;;;5.32;1.35;;;;;;;;;;6176557;28;20038;-89
2022/11/07 14:01:54;;;;;;;2.85;1.27;;;;;;;;;;6184276;28;20411;-88
2022/11/07 14:05:09;;;;;;;8.05;2.40;;;;;;;;;;6189264;28;20380;-88
2022/11/07 14:08:42;;;;;;;4.65;1.65;;;;;;;;;;6174721;28;20061;-89
2022/11/07 14:11:45;;;;;;;;;;;;;;;;;;6170631;28;20053;-89
2022/11/07 14:14:49;;;;;;;4.05;1.67;;;;;;;;;;6203996;28;19981;-89
2022/11/07 14:17:54;;;;;;;4.07;1.60;;;;;;;;;;6195553;28;20116;-88
2022/11/07 14:20:57;;;;;;;4.68;1.30;;;;;;;;;;6195883;28;20055;-89
2022/11/07 14:24:00;;;;;;;5.43;1.63;;;;;;;;;;6178419;28;20516;-89
2022/11/07 14:27:11;;;;;;;;;;;;;;;;;;6187575;28;20453;-89
2022/11/07 14:30:18;;;;;;;4.38;1.48;;;;;;;;;;6179396;28;19926;-87
2022/11/07 14:33:21;;;;;;;5.43;1.90;;;;;;;;;;6164901;28;20054;-88
2022/11/07 14:36:24;;;;;;;6.38;1.77;;;;;;;;;;6176203;28;20042;-89
2022/11/07 14:39:28;;;;;;;5.13;1.40;;;;;;;;;;6173312;28;20091;-89
2022/11/07 14:42:30;;;;;;;6.30;2.10;;;;;;;;;;6160142;28;20051;-88
2022/11/07 14:45:32;;;;;;;2.67;1.85;;;;;;;;;;6175013;28;20081;-89
2022/11/07 14:48:54;;;;;;;3.10;1.55;;;;;;;;;;6175847;28;20176;-89
2022/11/07 14:51:56;;;;;;;3.92;1.98;;;;;;;;;;6175707;28;20046;-89
2022/11/07 14:55:13;;;;;;;5.20;1.60;;;;;;;;;;6178211;28;20056;-90
2022/11/07 14:58:16;;;;;;;2.65;1.73;;;;;;;;;;6194370;28;20054;-89
2022/11/07 15:01:34;;;;;;;4.28;1.40;;;;;;;;;;6164780;28;20059;-90
2022/11/07 15:04:40;;;;;;;3.97;1.30;;;;;;;;;;6181274;28;20050;-89
2022/11/07 15:07:47;;;;;;;7.43;1.80;;;;;;;;;;6185603;28;20059;-89
2022/11/07 15:11:03;;;;;;;7.97;1.60;;;;;;;;;;6174525;28;20038;-89
2022/11/07 15:14:23;;;;;;;6.00;1.45;;;;;;;;;;6268300;28;20050;-89
2022/11/07 15:17:25;;;;;;;4.95;2.20;;;;;;;;;;6176689;28;20050;-89
2022/11/07 15:20:29;;;;;;;2.90;1.23;;;;;;;;;;6172150;28;20091;-89
2022/11/07 15:23:33;;;;;;;7.00;1.58;;;;;;;;;;6190046;28;20089;-89
2022/11/07 15:26:35;;;;;;;4.25;1.48;;;;;;;;;;6201381;28;20057;-88
2022/11/07 15:29:37;;;;;;;6.03;2.08;;;;;;;;;;6187984;28;20100;-88
2022/11/07 15:32:41;;;;;;;6.68;1.80;;;;;;;;;;6179340;28;20105;-89
2022/11/07 15:35:45;;;;;;;5.60;1.85;;;;;;;;;;6196275;28;20054;-89
2022/11/07 15:38:48;;;;;;;6.28;2.00;;;;;;;;;;6182514;28;20513;-87
2022/11/07 15:41:50;;;;;;;7.97;1.75;;;;;;;;;;6191495;28;20046;-88
2022/11/07 15:44:51;;;;;;;7.88;1.80;;;;;;;;;;6171576;28;20050;-89
2022/11/07 15:47:53;;;;;;;6.47;1.88;;;;;;;;;;6164823;28;20151;-89
2022/11/07 15:50:56;;;;;;;5.65;1.70;;;;;;;;;;6183583;28;20137;-89
2022/11/07 15:53:57;;;;;;;8.15;3.67;;;;;;;;;;6174545;28;20049;-90
2022/11/07 15:57:02;;;;;;;5.57;2.50;;;;;;;;;;6164111;28;20066;-90
2022/11/07 16:00:04;;;;;;;6.47;1.60;;;;;;;;;;6200417;28;20141;-88
2022/11/07 16:03:14;;;;;;;8.60;2.00;;;;;;;;;;6179619;28;20057;-89
2022/11/07 16:06:20;;;;;;;2.33;1.70;;;;;;;;;;6168075;28;20050;-89
2022/11/07 16:09:21;;;;;;;8.95;3.08;;;;;;;;;;6174016;28;20050;-89
2022/11/07 16:12:23;;;;;;;7.60;2.83;;;;;;;;;;6163373;28;20042;-90
2022/11/07 16:15:26;;;;;;;5.43;3.00;;;;;;;;;;6178788;28;20100;-89
2022/11/07 16:18:33;;;;;;;6.97;2.83;;;;;;;;;;6178787;28;20050;-89
2022/11/07 16:21:35;;;;;;;9.75;3.67;;;;;;;;;;6182389;28;20073;-89
2022/11/07 16:24:37;;;;;;;5.85;3.08;;;;;;;;;;6176662;28;20224;-89
2022/11/07 16:27:40;;;;;;;8.63;4.30;;;;;;;;;;6181589;28;20064;-90
2022/11/07 16:30:41;;;;;;;;;;;;;;;;;;6182158;28;20054;-89
2022/11/07 16:33:43;;;;;;;22.15;9.07;;;;;;;;;;6174225;28;19930;-89
2022/11/07 16:36:46;;;;;;;10.88;4.25;;;;;;;;;;6243971;28;20115;-89
2022/11/07 16:39:47;;;;;;;13.63;4.15;;;;;;;;;;6181943;28;20067;-89
2022/11/07 16:42:49;;;;;;;8.25;2.95;;;;;;;;;;6165687;28;20514;-88
2022/11/07 16:45:54;;;;;;;5.47;2.63;;;;;;;;;;6183497;28;20110;-89
2022/11/07 16:49:12;;;;;;;5.47;2.40;;;;;;;;;;6182265;28;20141;-90
2022/11/07 16:52:15;;;;;;;4.93;2.05;;;;;;;;;;6169745;28;20046;-89
2022/11/07 16:55:21;;;;;;;7.03;2.05;;;;;;;;;;6167265;28;20110;-90
2022/11/07 16:58:31;;;;;;;9.27;2.55;;;;;;;;;;6185232;28;20046;-91
2022/11/07 17:01:34;;;;;;;8.52;2.88;;;;;;;;;;6180371;28;20622;-91
2022/11/07 17:04:36;;;;;;;6.85;2.80;;;;;;;;;;6162762;28;20046;-90
2022/11/07 17:07:38;;;;;;;8.38;3.22;;;;;;;;;;6185693;28;20099;-90
2022/11/07 17:10:40;;;;;;;10.05;4.22;;;;;;;;;;6156446;28;20046;-91
2022/11/07 17:13:43;;;;;;;12.27;6.35;;;;;;;;;;6180332;28;20060;-89
2022/11/07 17:16:47;;;;;;;11.68;5.70;;;;;;;;;;6163605;28;20444;-90
2022/11/07 17:19:49;;;;;;;8.43;4.93;;;;;;;;;;6162949;28;20097;-89
2022/11/07 17:22:51;;;;;;;7.60;3.60;;;;;;;;;;6159216;28;20053;-89
2022/11/07 17:25:53;;;;;;;6.60;3.30;;;;;;;;;;6174423;28;20050;-89
2022/11/07 17:28:56;;;;;;;9.20;2.70;;;;;;;;;;6176923;28;20110;-90
2022/11/07 17:31:58;;;;;;;5.63;3.15;;;;;;;;;;6169328;28;20050;-90
2022/11/07 17:34:59;;;;;;;6.32;2.60;;;;;;;;;;6158483;28;20527;-90
2022/11/07 17:38:21;;;;;;;4.65;2.00;;;;;;;;;;6187983;28;20145;-90
2022/11/07 17:41:29;;;;;;;8.18;2.95;;;;;;;;;;6170144;28;20038;-90
2022/11/07 17:44:31;;;;;;;5.88;2.33;;;;;;;;;;6169527;28;20050;-91
2022/11/07 17:47:35;;;;;;;6.90;4.00;;;;;;;;;;6201659;28;20054;-90
2022/11/07 17:50:38;;;;;;;7.40;2.70;;;;;;;;;;6183720;28;20057;-91
2022/11/07 17:53:42;;;;;;;8.20;2.30;;;;;;;;;;6187195;28;20038;-92
2022/11/07 17:56:44;;;;;;;7.50;2.25;;;;;;;;;;6166884;28;20061;-91
2022/11/07 17:59:46;;;;;;;5.53;2.40;;;;;;;;;;6161380;28;20160;-91
2022/11/07 18:02:49;;;;;;;6.95;2.58;;;;;;;;;;6260519;28;20065;-91
2022/11/07 18:05:52;;;;;;;6.80;2.22;;;;;;;;;;6170692;28;20045;-91
2022/11/07 18:08:56;;;;;;;5.38;2.30;;;;;;;;;;6164859;28;20054;-91
2022/11/07 18:12:00;;;;;;;3.78;1.92;;;;;;;;;;6180793;28;20046;-90
2022/11/07 18:15:11;;;;;;;5.18;2.10;;;;;;;;;;6172983;28;20611;-89
2022/11/07 18:18:14;;;;;;;5.88;3.10;;;;;;;;;;6162282;28;20046;-91
2022/11/07 18:21:19;;;;;;;7.03;2.80;;;;;;;;;;6170203;28;20042;-91
2022/11/07 18:24:21;;;;;;;6.18;2.83;;;;;;;;;;6189041;28;20049;-91
2022/11/07 18:27:24;;;;;;;3.72;2.50;;;;;;;;;;6201217;28;20053;-90
2022/11/07 18:30:26;;;;;;;8.45;4.28;;;;;;;;;;6192746;28;20126;-92
2022/11/07 18:33:28;;;;;;;8.23;2.92;;;;;;;;;;6173920;28;20056;-90
2022/11/07 18:36:33;;;;;;;8.32;4.00;;;;;;;;;;6188275;28;20078;-90
2022/11/07 18:39:35;;;;;;;5.55;2.50;;;;;;;;;;6196030;28;20053;-91
2022/11/07 18:42:40;;;;;;;11.00;5.60;;;;;;;;;;6162908;28;20054;-90
2022/11/07 18:45:42;;;;;;;10.68;3.50;;;;;;;;;;6156585;28;20449;-89